createdAt,value
2022-08-12T00:00:09.234Z,23.33526611
2022-08-12T00:01:10.989Z,23.30505371
2022-08-12T00:02:12.048Z,23.26477051
2022-08-12T00:03:13.208Z,23.26477051
2022-08-12T00:04:13.890Z,23.25469971
2022-08-12T00:05:15.075Z,23.26477051
2022-08-12T00:06:16.434Z,23.30505371
2022-08-12T00:07:17.657Z,23.29498291
2022-08-12T00:08:28.943Z,23.26477051
2022-08-12T00:09:24.316Z,23.25469971
2022-08-12T00:10:20.951Z,23.2244873
2022-08-12T00:11:22.192Z,23.26477051
2022-08-12T00:12:23.839Z,23.29498291
2022-08-12T00:13:24.531Z,23.2244873
2022-08-12T00:14:25.759Z,23.2144165
2022-08-12T00:15:27.600Z,23.2244873
2022-08-12T00:16:28.638Z,23.2144165
2022-08-12T00:17:29.374Z,23.1640625
2022-08-12T00:18:31.032Z,23.1439209
2022-08-12T00:19:31.957Z,23.1237793
2022-08-12T00:20:33.698Z,23.1439209
2022-08-12T00:22:05.717Z,23.1137085
2022-08-12T00:23:07.117Z,23.07342529
2022-08-12T00:24:08.044Z,23.1137085
2022-08-12T00:25:09.353Z,23.1137085
2022-08-12T00:26:23.156Z,23.09356689
2022-08-12T00:27:12.395Z,23.07342529
2022-08-12T00:28:14.848Z,23.06335449
2022-08-12T00:29:15.606Z,23.04321289
2022-08-12T00:30:17.546Z,23.04321289
2022-08-12T00:31:19.134Z,23.01300049
2022-08-12T00:32:35.427Z,23.00292969
2022-08-12T00:33:20.680Z,23.01300049
2022-08-12T00:34:21.424Z,23.00292969
2022-08-12T00:35:23.533Z,23.00292969
2022-08-12T00:36:35.204Z,23.03314209
2022-08-12T00:37:24.637Z,23.00292969
2022-08-12T00:38:26.181Z,22.97271729
2022-08-12T00:39:26.871Z,22.91229248
2022-08-12T00:40:27.667Z,22.89215088
2022-08-12T00:41:28.489Z,22.93243408
2022-08-12T00:42:29.172Z,22.88208008
2022-08-12T00:43:29.932Z,22.88208008
2022-08-12T00:44:30.657Z,22.88208008
2022-08-12T00:45:31.501Z,22.86193848
2022-08-12T00:46:32.293Z,22.84179688
2022-08-12T00:47:33.044Z,22.78137207
2022-08-12T00:49:04.951Z,22.78137207
2022-08-12T00:50:06.729Z,22.75115967
2022-08-12T00:51:07.511Z,22.75115967
2022-08-12T00:52:08.296Z,22.79144287
2022-08-12T00:53:08.970Z,22.76123047
2022-08-12T00:54:09.732Z,22.74108887
2022-08-12T00:55:11.440Z,22.72094727
2022-08-12T00:56:12.230Z,22.70080566
2022-08-12T00:57:13.010Z,22.67059326
2022-08-12T00:58:14.675Z,22.63031006
2022-08-12T00:59:15.444Z,22.56988525
2022-08-12T01:00:16.197Z,22.51953125
2022-08-12T01:01:17.718Z,22.53967285
2022-08-12T01:02:18.428Z,22.50946045
2022-08-12T01:03:19.078Z,22.50946045
2022-08-12T01:04:19.890Z,22.48931885
2022-08-12T01:05:20.645Z,22.45910645
2022-08-12T01:06:21.494Z,22.45910645
2022-08-12T01:07:22.253Z,22.44903564
2022-08-12T01:08:23.526Z,22.43896484
2022-08-12T01:09:24.283Z,22.40875244
2022-08-12T01:10:27.414Z,22.38861084
2022-08-12T01:11:25.873Z,22.37854004
2022-08-12T01:12:26.762Z,22.35839844
2022-08-12T01:13:27.405Z,22.34832764
2022-08-12T01:14:28.193Z,22.30804443
2022-08-12T01:15:29.282Z,22.28790283
2022-08-12T01:16:29.887Z,22.22747803
2022-08-12T01:17:30.649Z,22.23754883
2022-08-12T01:18:32.163Z,22.23754883
2022-08-12T01:19:32.957Z,22.20733643
2022-08-12T01:21:04.474Z,22.25769043
2022-08-12T01:22:05.322Z,22.26776123
2022-08-12T01:23:06.070Z,22.28790283
2022-08-12T01:24:29.972Z,22.26776123
2022-08-12T01:25:07.649Z,22.28790283
2022-08-12T01:26:09.181Z,22.30804443
2022-08-12T01:27:10.002Z,22.30804443
2022-08-12T01:28:11.652Z,22.32818604
2022-08-12T01:29:12.354Z,22.32818604
2022-08-12T01:30:13.170Z,22.32818604
2022-08-12T01:31:16.295Z,22.37854004
2022-08-12T01:32:14.717Z,22.38861084
2022-08-12T01:33:15.453Z,22.38861084
2022-08-12T01:34:33.410Z,22.38861084
2022-08-12T01:35:17.987Z,22.40875244
2022-08-12T01:36:18.775Z,22.47924805
2022-08-12T01:37:19.548Z,22.47924805
2022-08-12T01:38:21.150Z,22.47924805
2022-08-12T01:39:21.935Z,22.47924805
2022-08-12T01:40:34.588Z,22.51953125
2022-08-12T01:41:23.493Z,22.53967285
2022-08-12T01:42:24.281Z,22.59002686
2022-08-12T01:43:25.015Z,22.59002686
2022-08-12T01:44:25.733Z,22.60009766
2022-08-12T01:45:27.176Z,22.60009766
2022-08-12T01:46:27.960Z,22.61016846
2022-08-12T01:47:28.771Z,22.64038086
2022-08-12T01:48:30.172Z,22.69073486
2022-08-12T01:49:30.892Z,22.69073486
2022-08-12T01:50:31.685Z,22.69073486
2022-08-12T01:52:19.817Z,22.72094727
2022-08-12T01:53:04.047Z,22.72094727
2022-08-12T01:54:04.771Z,22.72094727
2022-08-12T01:55:05.461Z,22.76123047
2022-08-12T01:56:07.213Z,22.78137207
2022-08-12T01:57:08.050Z,22.78137207
2022-08-12T01:58:08.907Z,22.75115967
2022-08-12T01:59:12.352Z,22.78137207
2022-08-12T02:00:11.515Z,22.75115967
2022-08-12T02:01:13.272Z,22.74108887
2022-08-12T02:02:14.019Z,22.74108887
2022-08-12T02:03:14.858Z,22.69073486
2022-08-12T02:04:15.602Z,22.69073486
2022-08-12T02:05:16.305Z,22.70080566
2022-08-12T02:06:17.116Z,22.67059326
2022-08-12T02:07:17.901Z,22.67059326
2022-08-12T02:08:19.737Z,22.63031006
2022-08-12T02:09:20.469Z,22.63031006
2022-08-12T02:10:50.290Z,22.61016846
2022-08-12T02:11:21.923Z,22.60009766
2022-08-12T02:12:27.923Z,22.60009766
2022-08-12T02:13:42.115Z,22.60009766
2022-08-12T02:14:24.292Z,22.61016846
2022-08-12T02:15:25.039Z,22.61016846
2022-08-12T02:16:25.758Z,22.64038086
2022-08-12T02:17:55.687Z,22.66052246
2022-08-12T02:18:28.692Z,22.67059326
2022-08-12T02:19:29.480Z,22.69073486
2022-08-12T02:20:50.908Z,22.67059326
2022-08-12T02:21:31.045Z,22.64038086
2022-08-12T02:22:31.844Z,22.63031006
2022-08-12T02:23:33.023Z,22.63031006
2022-08-12T02:25:04.197Z,22.63031006
2022-08-12T02:26:05.658Z,22.63031006
2022-08-12T02:27:06.467Z,22.63031006
2022-08-12T02:28:07.973Z,22.60009766
2022-08-12T02:29:08.610Z,22.61016846
2022-08-12T02:30:09.340Z,22.56988525
2022-08-12T02:31:10.022Z,22.48931885
2022-08-12T02:32:10.785Z,22.47924805
2022-08-12T02:33:11.632Z,22.45910645
2022-08-12T02:34:12.411Z,22.45910645
2022-08-12T02:35:13.124Z,22.43896484
2022-08-12T02:36:13.763Z,22.40875244
2022-08-12T02:37:14.594Z,22.43896484
2022-08-12T02:38:15.243Z,22.41882324
2022-08-12T02:39:16.616Z,22.38861084
2022-08-12T02:40:17.369Z,22.40875244
2022-08-12T02:41:18.036Z,22.37854004
2022-08-12T02:42:18.742Z,22.37854004
2022-08-12T02:43:19.503Z,22.38861084
2022-08-12T02:44:20.336Z,22.38861084
2022-08-12T02:45:21.054Z,22.37854004
2022-08-12T02:46:21.747Z,22.32818604
2022-08-12T02:47:59.261Z,22.32818604
2022-08-12T02:48:23.180Z,22.30804443
2022-08-12T02:49:24.604Z,22.32818604
2022-08-12T02:50:25.359Z,22.32818604
2022-08-12T02:51:26.027Z,22.34832764
2022-08-12T02:52:26.705Z,22.37854004
2022-08-12T02:53:27.445Z,22.40875244
2022-08-12T02:54:28.220Z,22.40875244
2022-08-12T02:55:34.326Z,22.44903564
2022-08-12T02:56:30.316Z,22.47924805
2022-08-12T02:57:31.025Z,22.45910645
2022-08-12T02:58:33.480Z,22.45910645
2022-08-12T03:00:04.210Z,22.50946045
2022-08-12T03:01:04.999Z,22.50946045
2022-08-12T03:02:05.571Z,22.53967285
2022-08-12T03:03:06.247Z,22.50946045
2022-08-12T03:04:06.890Z,22.50946045
2022-08-12T03:05:07.577Z,22.53967285
2022-08-12T03:06:08.257Z,22.50946045
2022-08-12T03:07:09.687Z,22.41882324
2022-08-12T03:08:12.237Z,22.38861084
2022-08-12T03:09:12.032Z,22.32818604
2022-08-12T03:10:15.841Z,22.29797363
2022-08-12T03:11:14.610Z,22.28790283
2022-08-12T03:12:20.048Z,22.28790283
2022-08-12T03:13:15.119Z,22.25769043
2022-08-12T03:14:15.788Z,22.22747803
2022-08-12T03:15:16.563Z,22.19726563
2022-08-12T03:16:17.264Z,22.19726563
2022-08-12T03:17:17.906Z,22.20733643
2022-08-12T03:18:26.101Z,22.20733643
2022-08-12T03:19:19.995Z,22.16705322
2022-08-12T03:20:22.649Z,22.11669922
2022-08-12T03:21:54.624Z,22.08648682
2022-08-12T03:22:22.257Z,22.10662842
2022-08-12T03:23:30.341Z,22.11669922
2022-08-12T03:24:23.544Z,22.14691162
2022-08-12T03:25:24.307Z,22.16705322
2022-08-12T03:26:25.703Z,22.14691162
2022-08-12T03:27:26.409Z,22.11669922
2022-08-12T03:28:27.098Z,22.08648682
2022-08-12T03:29:28.531Z,22.08648682
2022-08-12T03:30:29.184Z,22.05627441
2022-08-12T03:31:29.958Z,22.01599121
2022-08-12T03:32:36.208Z,22.01599121
2022-08-12T03:34:03.235Z,22.05627441
2022-08-12T03:35:04.176Z,22.05627441
2022-08-12T03:36:04.949Z,22.07641602
2022-08-12T03:37:05.698Z,22.07641602
2022-08-12T03:38:08.074Z,22.07641602
2022-08-12T03:39:07.724Z,22.01599121
2022-08-12T03:40:08.459Z,22.01599121
2022-08-12T03:41:09.038Z,22.00592041
2022-08-12T03:42:09.754Z,22.00592041
2022-08-12T03:43:11.859Z,22.00592041
2022-08-12T03:44:11.504Z,21.925354
2022-08-12T03:45:12.180Z,21.9052124
2022-08-12T03:46:12.941Z,21.8850708
2022-08-12T03:47:13.743Z,21.8548584
2022-08-12T03:48:18.985Z,21.8347168
2022-08-12T03:49:16.253Z,21.824646
2022-08-12T03:50:16.946Z,21.8649292
2022-08-12T03:51:17.697Z,21.925354
2022-08-12T03:52:18.373Z,21.9052124
2022-08-12T03:53:19.077Z,21.95556641
2022-08-12T03:54:19.810Z,21.9052124
2022-08-12T03:55:20.465Z,21.9354248
2022-08-12T03:56:21.239Z,21.9354248
2022-08-12T03:57:22.619Z,21.9052124
2022-08-12T03:58:23.359Z,21.8649292
2022-08-12T03:59:25.069Z,21.8850708
2022-08-12T04:00:25.736Z,21.8548584
2022-08-12T04:01:27.623Z,21.8548584
2022-08-12T04:02:27.290Z,21.8850708
2022-08-12T04:03:28.727Z,21.8951416
2022-08-12T04:04:29.548Z,21.9052124
2022-08-12T04:05:54.490Z,21.925354
2022-08-12T04:06:35.509Z,21.925354
2022-08-12T04:08:02.432Z,21.9052124
2022-08-12T04:09:03.661Z,21.9052124
2022-08-12T04:10:04.366Z,21.925354
2022-08-12T04:11:05.047Z,21.925354
2022-08-12T04:12:05.815Z,21.8951416
2022-08-12T04:13:06.580Z,21.8951416
2022-08-12T04:14:07.309Z,21.8850708
2022-08-12T04:15:07.994Z,21.8649292
2022-08-12T04:16:08.650Z,21.824646
2022-08-12T04:17:09.302Z,21.8145752
2022-08-12T04:18:10.007Z,21.824646
2022-08-12T04:19:11.705Z,21.8347168
2022-08-12T04:20:12.434Z,21.8548584
2022-08-12T04:21:13.078Z,21.8347168
2022-08-12T04:22:13.790Z,21.8347168
2022-08-12T04:23:16.763Z,21.824646
2022-08-12T04:24:15.377Z,21.8145752
2022-08-12T04:25:16.716Z,21.79443359
2022-08-12T04:26:17.380Z,21.79443359
2022-08-12T04:27:18.082Z,21.79443359
2022-08-12T04:28:18.847Z,21.77429199
2022-08-12T04:29:20.226Z,21.75415039
2022-08-12T04:30:32.593Z,21.74407959
2022-08-12T04:31:21.564Z,21.71386719
2022-08-12T04:32:22.313Z,21.73400879
2022-08-12T04:33:23.093Z,21.73400879
2022-08-12T04:34:23.867Z,21.71386719
2022-08-12T04:35:24.596Z,21.70379639
2022-08-12T04:36:25.272Z,21.67358398
2022-08-12T04:37:25.933Z,21.67358398
2022-08-12T04:38:26.693Z,21.67358398
2022-08-12T04:39:28.278Z,21.70379639
2022-08-12T04:40:29.073Z,21.73400879
2022-08-12T04:41:29.875Z,21.75415039
2022-08-12T04:42:30.726Z,21.8145752
2022-08-12T04:44:02.680Z,21.77429199
2022-08-12T04:45:02.804Z,21.75415039
2022-08-12T04:46:03.586Z,21.74407959
2022-08-12T04:47:05.202Z,21.71386719
2022-08-12T04:48:05.909Z,21.68365479
2022-08-12T04:49:06.678Z,21.64337158
2022-08-12T04:50:35.230Z,21.63330078
2022-08-12T04:51:08.947Z,21.59301758
2022-08-12T04:52:09.594Z,21.63330078
2022-08-12T04:53:10.333Z,21.68365479
2022-08-12T04:54:11.137Z,21.73400879
2022-08-12T04:55:12.178Z,21.74407959
2022-08-12T04:56:12.987Z,21.71386719
2022-08-12T04:57:14.195Z,21.74407959
2022-08-12T04:58:15.046Z,21.74407959
2022-08-12T04:59:16.278Z,21.68365479
2022-08-12T05:00:17.072Z,21.67358398
2022-08-12T05:01:17.903Z,21.66351318
2022-08-12T05:02:21.635Z,21.67358398
2022-08-12T05:03:19.253Z,21.64337158
2022-08-12T05:04:19.957Z,21.63330078
2022-08-12T05:05:20.741Z,21.64337158
2022-08-12T05:06:26.878Z,21.64337158
2022-08-12T05:07:22.867Z,21.64337158
2022-08-12T05:08:23.545Z,21.61315918
2022-08-12T05:09:25.239Z,21.64337158
2022-08-12T05:10:33.871Z,21.63330078
2022-08-12T05:11:26.824Z,21.64337158
2022-08-12T05:12:27.605Z,21.63330078
2022-08-12T05:13:28.306Z,21.64337158
2022-08-12T05:14:29.091Z,21.63330078
2022-08-12T05:15:29.842Z,21.61315918
2022-08-12T05:16:34.036Z,21.59301758
2022-08-12T05:18:19.153Z,21.61315918
2022-08-12T05:19:03.617Z,21.63330078
2022-08-12T05:20:05.181Z,21.61315918
2022-08-12T05:21:05.993Z,21.64337158
2022-08-12T05:22:06.776Z,21.64337158
2022-08-12T05:23:12.485Z,21.64337158
2022-08-12T05:24:08.072Z,21.66351318
2022-08-12T05:25:08.867Z,21.66351318
2022-08-12T05:26:09.659Z,21.67358398
2022-08-12T05:27:11.476Z,21.70379639
2022-08-12T05:28:12.145Z,21.70379639
2022-08-12T05:30:08.161Z,21.68365479
2022-08-12T05:30:14.133Z,21.70379639
2022-08-12T05:31:14.926Z,21.67358398
2022-08-12T05:32:15.712Z,21.68365479
2022-08-12T05:33:16.357Z,21.67358398
2022-08-12T05:34:17.081Z,21.68365479
2022-08-12T05:35:17.881Z,21.70379639
2022-08-12T05:36:18.705Z,21.70379639
2022-08-12T05:37:20.266Z,21.66351318
2022-08-12T05:38:20.934Z,21.67358398
2022-08-12T05:39:21.813Z,21.68365479
2022-08-12T05:40:23.166Z,21.68365479
2022-08-12T05:41:23.960Z,21.68365479
2022-08-12T05:42:41.104Z,21.71386719
2022-08-12T05:43:25.411Z,21.73400879
2022-08-12T05:44:26.078Z,21.75415039
2022-08-12T05:45:26.905Z,21.75415039
2022-08-12T05:46:27.700Z,21.75415039
2022-08-12T05:47:36.673Z,21.8145752
2022-08-12T05:48:30.056Z,21.77429199
2022-08-12T05:50:01.304Z,21.77429199
2022-08-12T05:51:02.687Z,21.79443359
2022-08-12T05:52:03.444Z,21.79443359
2022-08-12T05:53:04.188Z,21.8347168
2022-08-12T05:54:04.814Z,21.8649292
2022-08-12T05:55:05.583Z,21.9052124
2022-08-12T05:56:06.401Z,21.9052124
2022-08-12T05:57:07.221Z,21.9354248
2022-08-12T05:58:08.004Z,21.98577881
2022-08-12T05:59:08.676Z,22.00592041
2022-08-12T06:00:10.159Z,22.01599121
2022-08-12T06:02:09.598Z,22.04620361
2022-08-12T06:02:13.614Z,22.04620361
2022-08-12T06:03:13.498Z,22.05627441
2022-08-12T06:04:14.024Z,22.07641602
2022-08-12T06:05:15.256Z,22.05627441
2022-08-12T06:06:16.038Z,22.05627441
2022-08-12T06:08:00.076Z,22.07641602
2022-08-12T06:08:17.511Z,22.04620361
2022-08-12T06:09:18.171Z,22.07641602
2022-08-12T06:10:31.775Z,22.08648682
2022-08-12T06:11:20.430Z,22.11669922
2022-08-12T06:12:21.229Z,22.14691162
2022-08-12T06:13:27.981Z,22.16705322
2022-08-12T06:14:22.664Z,22.14691162
2022-08-12T06:15:23.379Z,22.11669922
2022-08-12T06:16:24.148Z,22.11669922
2022-08-12T06:17:24.934Z,22.11669922
2022-08-12T06:18:29.621Z,22.13684082
2022-08-12T06:20:27.945Z,22.16705322
2022-08-12T06:20:34.421Z,22.19726563
2022-08-12T06:21:28.559Z,22.22747803
2022-08-12T06:22:29.204Z,22.26776123
2022-08-12T06:23:30.574Z,22.26776123
2022-08-12T06:25:01.392Z,22.25769043
2022-08-12T06:26:02.230Z,22.22747803
2022-08-12T06:27:03.003Z,22.22747803
2022-08-12T06:28:07.300Z,22.19726563
2022-08-12T06:29:05.460Z,22.19726563
2022-08-12T06:30:12.541Z,22.20733643
2022-08-12T06:31:25.335Z,22.22747803
2022-08-12T06:32:08.352Z,22.23754883
2022-08-12T06:35:25.467Z,22.19726563
2022-08-12T06:35:26.488Z,22.20733643
2022-08-12T06:36:11.500Z,22.22747803
2022-08-12T06:37:12.384Z,22.22747803
2022-08-12T06:38:13.059Z,22.20733643
2022-08-12T06:39:14.695Z,22.20733643
2022-08-12T06:40:15.218Z,22.20733643
2022-08-12T06:41:15.972Z,22.25769043
2022-08-12T06:42:32.165Z,22.25769043
2022-08-12T06:43:17.564Z,22.25769043
2022-08-12T06:44:18.359Z,22.26776123
2022-08-12T06:45:18.997Z,22.29797363
2022-08-12T06:46:19.697Z,22.30804443
2022-08-12T06:47:20.485Z,22.32818604
2022-08-12T06:48:21.268Z,22.32818604
2022-08-12T06:49:22.082Z,22.28790283
2022-08-12T06:50:23.552Z,22.25769043
2022-08-12T06:51:25.061Z,22.25769043
2022-08-12T06:52:25.840Z,22.25769043
2022-08-12T06:53:26.672Z,22.29797363
2022-08-12T06:54:31.087Z,22.29797363
2022-08-12T06:55:28.118Z,22.29797363
2022-08-12T06:56:46.306Z,22.30804443
2022-08-12T06:58:05.311Z,22.28790283
2022-08-12T06:59:02.083Z,22.29797363
2022-08-12T07:00:03.787Z,22.29797363
2022-08-12T07:01:04.527Z,22.29797363
2022-08-12T07:02:05.161Z,22.30804443
2022-08-12T07:03:16.438Z,22.34832764
2022-08-12T07:04:35.293Z,22.32818604
2022-08-12T07:05:08.315Z,22.34832764
2022-08-12T07:06:09.006Z,22.37854004
2022-08-12T07:07:10.053Z,22.38861084
2022-08-12T07:08:10.576Z,22.37854004
2022-08-12T07:09:15.895Z,22.34832764
2022-08-12T07:10:13.281Z,22.35839844
2022-08-12T07:11:14.030Z,22.34832764
2022-08-12T07:12:14.671Z,22.35839844
2022-08-12T07:13:15.454Z,22.32818604
2022-08-12T07:14:16.237Z,22.35839844
2022-08-12T07:15:17.043Z,22.37854004
2022-08-12T07:16:17.691Z,22.38861084
2022-08-12T07:17:18.368Z,22.41882324
2022-08-12T07:18:19.143Z,22.38861084
2022-08-12T07:19:19.953Z,22.40875244
2022-08-12T07:20:50.274Z,22.38861084
2022-08-12T07:21:21.953Z,22.38861084
2022-08-12T07:22:22.639Z,22.38861084
2022-08-12T07:23:23.398Z,22.40875244
2022-08-12T07:24:24.174Z,22.38861084
2022-08-12T07:25:24.975Z,22.37854004
2022-08-12T07:26:25.650Z,22.35839844
2022-08-12T07:27:26.361Z,22.32818604
2022-08-12T07:28:27.788Z,22.30804443
2022-08-12T07:30:03.576Z,22.26776123
2022-08-12T07:30:30.810Z,22.29797363
2022-08-12T07:32:01.865Z,22.30804443
2022-08-12T07:33:02.576Z,22.30804443
2022-08-12T07:34:03.416Z,22.32818604
2022-08-12T07:35:04.683Z,22.35839844
2022-08-12T07:36:05.496Z,22.34832764
2022-08-12T07:37:06.204Z,22.35839844
2022-08-12T07:38:06.924Z,22.38861084
2022-08-12T07:39:07.714Z,22.43896484
2022-08-12T07:40:08.529Z,22.43896484
2022-08-12T07:41:15.687Z,22.41882324
2022-08-12T07:42:10.904Z,22.40875244
2022-08-12T07:43:11.667Z,22.44903564
2022-08-12T07:44:12.438Z,22.47924805
2022-08-12T07:45:13.234Z,22.55981445
2022-08-12T07:46:14.015Z,22.61016846
2022-08-12T07:47:14.713Z,22.61016846
2022-08-12T07:48:15.453Z,22.61016846
2022-08-12T07:49:16.144Z,22.66052246
2022-08-12T07:50:21.491Z,22.67059326
2022-08-12T07:51:25.152Z,22.67059326
2022-08-12T07:52:19.392Z,22.72094727
2022-08-12T07:53:20.125Z,22.76123047
2022-08-12T07:54:20.822Z,22.78137207
2022-08-12T07:55:21.638Z,22.82165527
2022-08-12T07:56:22.473Z,22.85186768
2022-08-12T07:57:23.216Z,22.89215088
2022-08-12T07:58:24.588Z,22.89215088
2022-08-12T07:59:25.283Z,22.88208008
2022-08-12T08:00:26.779Z,22.93243408
2022-08-12T08:01:27.657Z,22.94250488
2022-08-12T08:02:28.334Z,22.99285889
2022-08-12T08:03:29.440Z,23.01300049
2022-08-12T08:05:00.619Z,23.04321289
2022-08-12T08:06:01.354Z,23.06335449
2022-08-12T08:07:02.207Z,23.09356689
2022-08-12T08:08:03.008Z,23.1237793
2022-08-12T08:09:03.690Z,23.1539917
2022-08-12T08:10:04.475Z,23.1842041
2022-08-12T08:11:06.187Z,23.2244873
2022-08-12T08:12:07.082Z,23.23455811
2022-08-12T08:13:07.828Z,23.25469971
2022-08-12T08:14:08.494Z,23.29498291
2022-08-12T08:15:09.220Z,23.31512451
2022-08-12T08:16:10.026Z,23.31512451
2022-08-12T08:17:10.853Z,23.29498291
2022-08-12T08:18:13.232Z,23.29498291
2022-08-12T08:19:12.337Z,23.25469971
2022-08-12T08:20:13.016Z,23.25469971
2022-08-12T08:21:14.654Z,23.23455811
2022-08-12T08:22:15.463Z,23.23455811
2022-08-12T08:23:16.327Z,23.26477051
2022-08-12T08:24:17.599Z,23.29498291
2022-08-12T08:25:20.461Z,23.30505371
2022-08-12T08:26:19.071Z,23.30505371
2022-08-12T08:27:19.882Z,23.33526611
2022-08-12T08:28:21.271Z,23.33526611
2022-08-12T08:29:21.966Z,23.33526611
2022-08-12T08:30:22.627Z,23.33526611
2022-08-12T08:31:24.180Z,23.31512451
2022-08-12T08:32:24.990Z,23.30505371
2022-08-12T08:34:09.533Z,23.30505371
2022-08-12T08:34:49.288Z,23.29498291
2022-08-12T08:35:38.779Z,23.31512451
2022-08-12T08:36:59.746Z,23.34533691
2022-08-12T08:38:00.558Z,23.31512451
2022-08-12T08:39:02.261Z,23.34533691
2022-08-12T08:40:02.840Z,23.37554932
2022-08-12T08:41:04.171Z,23.37554932
2022-08-12T08:42:19.375Z,23.37554932
2022-08-12T08:43:05.830Z,23.37554932
2022-08-12T08:44:06.460Z,23.38562012
2022-08-12T08:45:07.126Z,23.41583252
2022-08-12T08:46:07.818Z,23.43597412
2022-08-12T08:47:08.596Z,23.44604492
2022-08-12T08:48:09.418Z,23.43597412
2022-08-12T08:49:10.113Z,23.48632813
2022-08-12T08:50:11.747Z,23.51654053
2022-08-12T08:51:13.317Z,23.52661133
2022-08-12T08:52:39.668Z,23.56689453
2022-08-12T08:53:14.899Z,23.62731934
2022-08-12T08:54:15.523Z,23.66760254
2022-08-12T08:55:19.704Z,23.67767334
2022-08-12T08:56:16.877Z,23.71795654
2022-08-12T08:57:18.249Z,23.71795654
2022-08-12T08:58:18.939Z,23.71795654
2022-08-12T08:59:19.606Z,23.73809814
2022-08-12T09:00:20.280Z,23.71795654
2022-08-12T09:01:21.753Z,23.71795654
2022-08-12T09:02:22.419Z,23.73809814
2022-08-12T09:04:21.322Z,23.71795654
2022-08-12T09:05:13.106Z,23.73809814
2022-08-12T09:05:25.820Z,23.73809814
2022-08-12T09:07:51.023Z,23.76831055
2022-08-12T09:08:26.802Z,23.76831055
2022-08-12T09:10:31.236Z,23.78845215
2022-08-12T09:12:10.866Z,23.80859375
2022-08-12T09:13:00.860Z,23.83880615
2022-08-12T09:14:11.931Z,23.86901855
2022-08-12T09:15:01.518Z,23.88916016
2022-08-12T09:16:02.229Z,23.89923096
2022-08-12T09:17:02.916Z,23.92944336
2022-08-12T09:18:03.645Z,23.93951416
2022-08-12T09:19:04.390Z,23.96972656
2022-08-12T09:20:05.066Z,23.96972656
2022-08-12T09:21:06.756Z,23.98986816
2022-08-12T09:22:07.474Z,23.99993896
2022-08-12T09:24:10.452Z,23.99993896
2022-08-12T09:25:09.580Z,23.99993896
2022-08-12T09:26:11.231Z,23.98986816
2022-08-12T09:27:12.174Z,24.04022217
2022-08-12T09:28:12.739Z,24.04022217
2022-08-12T09:29:13.462Z,24.06036377
2022-08-12T09:30:14.371Z,24.11071777
2022-08-12T09:32:04.310Z,24.14093018
2022-08-12T09:32:56.635Z,24.18121338
2022-08-12T09:33:18.996Z,24.23156738
2022-08-12T09:34:31.065Z,24.24163818
2022-08-12T09:35:22.301Z,24.27185059
2022-08-12T09:36:30.995Z,24.24163818
2022-08-12T09:37:22.366Z,24.27185059
2022-08-12T09:38:20.972Z,24.27185059
2022-08-12T09:40:03.475Z,24.29199219
2022-08-12T09:41:02.537Z,24.31213379
2022-08-12T09:42:09.826Z,24.36248779
2022-08-12T09:42:34.387Z,24.36248779
2022-08-12T09:43:26.313Z,24.36248779
2022-08-12T09:44:39.579Z,24.3927002
2022-08-12T09:46:20.283Z,24.453125
2022-08-12T09:46:58.742Z,24.4631958
2022-08-12T09:48:00.302Z,24.4833374
2022-08-12T09:49:00.169Z,24.4934082
2022-08-12T09:50:00.863Z,24.52362061
2022-08-12T09:51:02.265Z,24.55383301
2022-08-12T09:52:03.000Z,24.59411621
2022-08-12T09:53:04.184Z,24.63439941
2022-08-12T09:54:08.966Z,24.64447021
2022-08-12T09:55:05.003Z,24.67468262
2022-08-12T09:56:58.850Z,24.67468262
2022-08-12T09:58:07.406Z,24.68475342
2022-08-12T09:58:57.395Z,24.71496582
2022-08-12T09:59:08.719Z,24.70489502
2022-08-12T10:00:13.525Z,24.71496582
2022-08-12T10:01:15.286Z,24.73510742
2022-08-12T10:02:45.267Z,24.73510742
2022-08-12T10:03:31.481Z,24.76531982
2022-08-12T10:04:14.037Z,24.76531982
2022-08-12T10:05:17.832Z,24.78546143
2022-08-12T10:06:27.638Z,24.81567383
2022-08-12T10:07:24.937Z,24.85595703
2022-08-12T10:08:16.739Z,24.86602783
2022-08-12T10:09:17.430Z,24.88616943
2022-08-12T10:10:22.916Z,24.91638184
2022-08-12T10:11:20.360Z,24.92645264
2022-08-12T10:12:31.153Z,24.92645264
2022-08-12T10:13:34.441Z,24.93652344
2022-08-12T10:14:21.963Z,24.96673584
2022-08-12T10:16:01.622Z,24.97680664
2022-08-12T10:16:23.923Z,25.01708984
2022-08-12T10:17:24.584Z,25.03723145
2022-08-12T10:18:26.447Z,25.04730225
2022-08-12T10:19:36.181Z,25.07751465
2022-08-12T10:20:26.573Z,25.06744385
2022-08-12T10:21:35.455Z,25.08758545
2022-08-12T10:22:58.758Z,25.11779785
2022-08-12T10:23:59.442Z,25.13793945
2022-08-12T10:25:00.130Z,25.16815186
2022-08-12T10:26:35.823Z,25.18829346
2022-08-12T10:27:05.996Z,25.18829346
2022-08-12T10:28:04.232Z,25.21850586
2022-08-12T10:30:01.667Z,25.23864746
2022-08-12T10:30:40.260Z,25.26885986
2022-08-12T10:31:05.807Z,25.29907227
2022-08-12T10:32:21.408Z,25.33935547
2022-08-12T10:33:18.215Z,25.34942627
2022-08-12T10:34:23.343Z,25.34942627
2022-08-12T10:35:09.171Z,25.37963867
2022-08-12T10:36:10.627Z,25.35949707
2022-08-12T10:37:23.681Z,25.38970947
2022-08-12T10:38:35.547Z,25.41992188
2022-08-12T10:40:00.095Z,25.44006348
2022-08-12T10:40:19.863Z,25.45013428
2022-08-12T10:41:19.036Z,25.46020508
2022-08-12T10:42:16.631Z,25.48034668
2022-08-12T10:43:17.291Z,25.51055908
2022-08-12T10:44:17.916Z,25.53070068
2022-08-12T10:45:18.561Z,25.56091309
2022-08-12T10:46:19.297Z,25.57098389
2022-08-12T10:47:26.241Z,25.57098389
2022-08-12T10:48:26.975Z,25.59112549
2022-08-12T10:50:03.009Z,25.60119629
2022-08-12T10:50:35.813Z,25.61126709
2022-08-12T10:52:04.328Z,25.63140869
2022-08-12T10:52:34.807Z,25.63140869
2022-08-12T10:53:44.242Z,25.66162109
2022-08-12T10:54:26.997Z,25.66162109
2022-08-12T10:55:27.481Z,25.64147949
2022-08-12T10:56:58.439Z,25.64147949
2022-08-12T10:58:15.094Z,25.64147949
2022-08-12T10:58:59.712Z,25.64147949
2022-08-12T11:00:31.262Z,25.66162109
2022-08-12T11:01:48.832Z,25.6918335
2022-08-12T11:04:19.435Z,25.7522583
2022-08-12T11:04:26.006Z,25.7119751
2022-08-12T11:04:27.797Z,25.7925415
2022-08-12T11:07:06.648Z,25.82275391
2022-08-12T11:07:09.834Z,25.85296631
2022-08-12T11:08:33.822Z,25.85296631
2022-08-12T11:08:37.189Z,25.89324951
2022-08-12T11:09:11.366Z,25.91339111
2022-08-12T11:10:08.992Z,25.94360352
2022-08-12T11:11:13.946Z,25.96374512
2022-08-12T11:12:56.078Z,25.96374512
2022-08-12T11:13:12.350Z,25.97381592